sensor_id;sensor_type;location;lat;lon;timestamp;pressure;altitude;pressure_sealevel;temperature;humidity
5413;BME280;2729;50.056;8.678;2023-04-01T00:00:58;98568.16;;;13.01;100.00
5413;BME280;2729;50.056;8.678;2023-04-01T00:03:26;98563.94;;;13.54;100.00
5413;BME280;2729;50.056;8.678;2023-04-01T00:05:54;98562.75;;;14.25;100.00
5413;BME280;2729;50.056;8.678;2023-04-01T00:08:20;98566.09;;;13.21;100.00
5413;BME280;2729;50.056;8.678;2023-04-01T00:10:46;98574.84;;;13.34;100.00
5413;BME280;2729;50.056;8.678;2023-04-01T00:13:12;98562.97;;;13.82;100.00
5413;BME280;2729;50.056;8.678;2023-04-01T00:15:38;98561.06;;;14.11;100.00
5413;BME280;2729;50.056;8.678;2023-04-01T00:18:04;98560.75;;;14.28;100.00
5413;BME280;2729;50.056;8.678;2023-04-01T00:20:30;98559.81;;;14.29;100.00
5413;BME280;2729;50.056;8.678;2023-04-01T00:22:56;98555.28;;;14.06;100.00
5413;BME280;2729;50.056;8.678;2023-04-01T00:25:23;98547.94;;;14.24;100.00
5413;BME280;2729;50.056;8.678;2023-04-01T00:27:49;98549.97;;;13.80;100.00
5413;BME280;2729;50.056;8.678;2023-04-01T00:30:16;98560.09;;;13.99;100.00
5413;BME280;2729;50.056;8.678;2023-04-01T00:32:42;98546.97;;;13.33;100.00
5413;BME280;2729;50.056;8.678;2023-04-01T00:35:08;98552.44;;;13.69;100.00
5413;BME280;2729;50.056;8.678;2023-04-01T00:37:36;98560.28;;;13.96;100.00
5413;BME280;2729;50.056;8.678;2023-04-01T00:40:04;98544.28;;;13.74;100.00
5413;BME280;2729;50.056;8.678;2023-04-01T00:42:31;98557.09;;;13.51;100.00
5413;BME280;2729;50.056;8.678;2023-04-01T00:44:57;98552.78;;;13.77;100.00
5413;BME280;2729;50.056;8.678;2023-04-01T00:47:25;98554.38;;;13.53;100.00
5413;BME280;2729;50.056;8.678;2023-04-01T00:49:54;98556.75;;;13.70;100.00
5413;BME280;2729;50.056;8.678;2023-04-01T00:52:23;98551.63;;;13.69;100.00
5413;BME280;2729;50.056;8.678;2023-04-01T00:54:55;98560.78;;;13.49;100.00
5413;BME280;2729;50.056;8.678;2023-04-01T00:57:30;98556.06;;;13.54;100.00
5413;BME280;2729;50.056;8.678;2023-04-01T00:59:57;98554.69;;;13.48;100.00
5413;BME280;2729;50.056;8.678;2023-04-01T01:02:24;98555.41;;;12.95;100.00
5413;BME280;2729;50.056;8.678;2023-04-01T01:04:51;98553.19;;;13.44;100.00
5413;BME280;2729;50.056;8.678;2023-04-01T01:10:18;98548.78;;;13.72;100.00
5413;BME280;2729;50.056;8.678;2023-04-01T01:13:02;98553.19;;;13.44;100.00
5413;BME280;2729;50.056;8.678;2023-04-01T01:15:36;98552.94;;;13.89;100.00
5413;BME280;2729;50.056;8.678;2023-04-01T01:23:42;98555.97;;;13.14;100.00
5413;BME280;2729;50.056;8.678;2023-04-01T01:35:43;98550.13;;;13.38;100.00
5413;BME280;2729;50.056;8.678;2023-04-01T01:38:18;98557.38;;;13.20;100.00
5413;BME280;2729;50.056;8.678;2023-04-01T01:40:54;98545.22;;;14.38;100.00
5413;BME280;2729;50.056;8.678;2023-04-01T01:43:33;98558.00;;;14.04;100.00
5413;BME280;2729;50.056;8.678;2023-04-01T01:46:05;98553.09;;;13.73;100.00
5413;BME280;2729;50.056;8.678;2023-04-01T01:48:34;98559.00;;;13.89;100.00
5413;BME280;2729;50.056;8.678;2023-04-01T01:51:01;98551.78;;;13.93;100.00
5413;BME280;2729;50.056;8.678;2023-04-01T01:53:27;98550.00;;;13.54;100.00
5413;BME280;2729;50.056;8.678;2023-04-01T01:55:53;98556.63;;;13.59;100.00
5413;BME280;2729;50.056;8.678;2023-04-01T01:58:34;98555.06;;;13.69;100.00
5413;BME280;2729;50.056;8.678;2023-04-01T02:01:10;98556.81;;;13.56;100.00
5413;BME280;2729;50.056;8.678;2023-04-01T02:03:39;98544.41;;;13.45;100.00
5413;BME280;2729;50.056;8.678;2023-04-01T02:06:10;98550.28;;;13.22;100.00
5413;BME280;2729;50.056;8.678;2023-04-01T02:08:56;98540.63;;;13.49;100.00
5413;BME280;2729;50.056;8.678;2023-04-01T02:11:34;98536.72;;;13.42;100.00
5413;BME280;2729;50.056;8.678;2023-04-01T02:14:06;98543.53;;;13.18;100.00
5413;BME280;2729;50.056;8.678;2023-04-01T02:16:38;98540.34;;;13.94;100.00
5413;BME280;2729;50.056;8.678;2023-04-01T02:19:06;98538.41;;;13.16;100.00
5413;BME280;2729;50.056;8.678;2023-04-01T02:21:34;98542.31;;;13.09;100.00
5413;BME280;2729;50.056;8.678;2023-04-01T02:24:04;98535.56;;;13.34;100.00
5413;BME280;2729;50.056;8.678;2023-04-01T02:26:34;98538.84;;;13.09;100.00
5413;BME280;2729;50.056;8.678;2023-04-01T02:29:01;98543.06;;;13.26;100.00
5413;BME280;2729;50.056;8.678;2023-04-01T02:31:28;98539.13;;;12.90;100.00
5413;BME280;2729;50.056;8.678;2023-04-01T02:33:54;98538.31;;;13.04;100.00
5413;BME280;2729;50.056;8.678;2023-04-01T02:36:20;98533.53;;;12.82;100.00
5413;BME280;2729;50.056;8.678;2023-04-01T02:38:47;98536.88;;;13.27;100.00
5413;BME280;2729;50.056;8.678;2023-04-01T02:41:14;98539.66;;;13.38;100.00
5413;BME280;2729;50.056;8.678;2023-04-01T02:43:40;98537.84;;;14.05;100.00
5413;BME280;2729;50.056;8.678;2023-04-01T02:46:06;98535.94;;;13.28;100.00
5413;BME280;2729;50.056;8.678;2023-04-01T02:48:32;98541.38;;;12.96;100.00
5413;BME280;2729;50.056;8.678;2023-04-01T02:50:58;98535.41;;;13.08;100.00
5413;BME280;2729;50.056;8.678;2023-04-01T02:53:24;98538.03;;;12.80;100.00
5413;BME280;2729;50.056;8.678;2023-04-01T02:55:50;98542.72;;;13.44;100.00
5413;BME280;2729;50.056;8.678;2023-04-01T02:58:18;98541.38;;;12.96;100.00
5413;BME280;2729;50.056;8.678;2023-04-01T03:00:45;98546.16;;;13.04;100.00
5413;BME280;2729;50.056;8.678;2023-04-01T03:03:11;98540.09;;;13.03;100.00
5413;BME280;2729;50.056;8.678;2023-04-01T03:05:39;98542.97;;;12.70;100.00
5413;BME280;2729;50.056;8.678;2023-04-01T03:08:05;98544.75;;;12.55;100.00
5413;BME280;2729;50.056;8.678;2023-04-01T03:10:31;98546.06;;;12.63;100.00
5413;BME280;2729;50.056;8.678;2023-04-01T03:12:57;98540.47;;;12.54;100.00
5413;BME280;2729;50.056;8.678;2023-04-01T03:15:23;98548.03;;;12.87;100.00
5413;BME280;2729;50.056;8.678;2023-04-01T03:17:49;98545.88;;;12.94;100.00
5413;BME280;2729;50.056;8.678;2023-04-01T03:20:17;98543.06;;;13.92;100.00
5413;BME280;2729;50.056;8.678;2023-04-01T03:22:42;98544.25;;;14.01;100.00
5413;BME280;2729;50.056;8.678;2023-04-01T03:25:09;98544.19;;;13.22;100.00
5413;BME280;2729;50.056;8.678;2023-04-01T03:27:35;98556.91;;;12.85;100.00
5413;BME280;2729;50.056;8.678;2023-04-01T03:30:03;98549.06;;;12.71;100.00
5413;BME280;2729;50.056;8.678;2023-04-01T03:32:30;98539.41;;;12.85;100.00
5413;BME280;2729;50.056;8.678;2023-04-01T03:34:56;98552.59;;;12.84;100.00
5413;BME280;2729;50.056;8.678;2023-04-01T03:37:23;98545.22;;;12.62;100.00
5413;BME280;2729;50.056;8.678;2023-04-01T03:39:50;98539.22;;;12.88;100.00
5413;BME280;2729;50.056;8.678;2023-04-01T03:42:16;98539.66;;;13.38;100.00
5413;BME280;2729;50.056;8.678;2023-04-01T03:44:42;98538.22;;;13.19;100.00
5413;BME280;2729;50.056;8.678;2023-04-01T03:47:10;98542.03;;;13.00;100.00
5413;BME280;2729;50.056;8.678;2023-04-01T03:49:36;98536.91;;;12.70;100.00
5413;BME280;2729;50.056;8.678;2023-04-01T03:52:02;98538.75;;;12.96;100.00
5413;BME280;2729;50.056;8.678;2023-04-01T03:54:28;98543.16;;;12.81;100.00
5413;BME280;2729;50.056;8.678;2023-04-01T03:56:54;98541.59;;;12.65;100.00
5413;BME280;2729;50.056;8.678;2023-04-01T03:59:21;98541.09;;;13.29;100.00
5413;BME280;2729;50.056;8.678;2023-04-01T04:01:47;98535.88;;;12.86;100.00
5413;BME280;2729;50.056;8.678;2023-04-01T04:04:13;98538.31;;;13.04;100.00
5413;BME280;2729;50.056;8.678;2023-04-01T04:06:41;98544.84;;;12.68;100.00
5413;BME280;2729;50.056;8.678;2023-04-01T04:09:07;98546.31;;;13.56;100.00
5413;BME280;2729;50.056;8.678;2023-04-01T04:11:34;98541.28;;;13.26;100.00
5413;BME280;2729;50.056;8.678;2023-04-01T04:14:00;98534.94;;;13.02;100.00
5413;BME280;2729;50.056;8.678;2023-04-01T04:16:26;98551.56;;;12.86;100.00
5413;BME280;2729;50.056;8.678;2023-04-01T04:18:56;98551.78;;;13.53;100.00
5413;BME280;2729;50.056;8.678;2023-04-01T04:21:22;98541.34;;;13.39;100.00
5413;BME280;2729;50.056;8.678;2023-04-01T04:23:48;98544.94;;;13.24;100.00
5413;BME280;2729;50.056;8.678;2023-04-01T04:26:16;98538.97;;;13.88;100.00
5413;BME280;2729;50.056;8.678;2023-04-01T04:28:47;98539.66;;;13.38;100.00
5413;BME280;2729;50.056;8.678;2023-04-01T04:31:19;98536.72;;;13.01;100.00
5413;BME280;2729;50.056;8.678;2023-04-01T04:33:46;98539.41;;;13.14;100.00
5413;BME280;2729;50.056;8.678;2023-04-01T04:36:12;98534.22;;;13.41;100.00
5413;BME280;2729;50.056;8.678;2023-04-01T04:38:38;98538.66;;;13.12;100.00
5413;BME280;2729;50.056;8.678;2023-04-01T04:41:09;98527.34;;;13.11;100.00
5413;BME280;2729;50.056;8.678;2023-04-01T04:43:35;98534.63;;;12.92;100.00
5413;BME280;2729;50.056;8.678;2023-04-01T04:46:07;98532.88;;;13.07;100.00
5413;BME280;2729;50.056;8.678;2023-04-01T04:48:33;98534.00;;;13.03;100.00
5413;BME280;2729;50.056;8.678;2023-04-01T04:51:00;98538.16;;;13.34;100.00
5413;BME280;2729;50.056;8.678;2023-04-01T04:53:26;98536.44;;;12.77;100.00
5413;BME280;2729;50.056;8.678;2023-04-01T04:55:53;98541.38;;;12.96;100.00
5413;BME280;2729;50.056;8.678;2023-04-01T04:58:33;98539.41;;;12.85;100.00
5413;BME280;2729;50.056;8.678;2023-04-01T05:01:09;98529.50;;;13.05;100.00
5413;BME280;2729;50.056;8.678;2023-04-01T05:03:37;98528.81;;;13.30;100.00
5413;BME280;2729;50.056;8.678;2023-04-01T05:06:05;98533.53;;;13.10;100.00
5413;BME280;2729;50.056;8.678;2023-04-01T05:08:32;98537.56;;;12.73;100.00
5413;BME280;2729;50.056;8.678;2023-04-01T05:11:00;98543.72;;;12.72;100.00
5413;BME280;2729;50.056;8.678;2023-04-01T05:13:28;98543.53;;;12.75;100.00
5413;BME280;2729;50.056;8.678;2023-04-01T05:15:54;98538.41;;;13.16;100.00
5413;BME280;2729;50.056;8.678;2023-04-01T05:18:21;98543.06;;;12.83;100.00
5413;BME280;2729;50.056;8.678;2023-04-01T05:20:51;98537.53;;;12.87;100.00
5413;BME280;2729;50.056;8.678;2023-04-01T05:23:19;98540.31;;;13.81;100.00
5413;BME280;2729;50.056;8.678;2023-04-01T05:25:48;98536.13;;;13.10;100.00
5413;BME280;2729;50.056;8.678;2023-04-01T05:28:14;98534.16;;;13.00;100.00
5413;BME280;2729;50.056;8.678;2023-04-01T05:30:43;98539.31;;;12.87;100.00
5413;BME280;2729;50.056;8.678;2023-04-01T05:33:21;98521.19;;;13.66;100.00
5413;BME280;2729;50.056;8.678;2023-04-01T05:35:47;98534.06;;;13.30;100.00
5413;BME280;2729;50.056;8.678;2023-04-01T05:38:13;98540.09;;;13.17;100.00
5413;BME280;2729;50.056;8.678;2023-04-01T05:40:39;98538.56;;;13.13;100.00
5413;BME280;2729;50.056;8.678;2023-04-01T05:43:07;98532.69;;;13.51;100.00
5413;BME280;2729;50.056;8.678;2023-04-01T05:45:33;98532.97;;;12.77;100.00
5413;BME280;2729;50.056;8.678;2023-04-01T05:48:28;98525.97;;;12.35;100.00
5413;BME280;2729;50.056;8.678;2023-04-01T05:50:54;98529.50;;;12.19;100.00
5413;BME280;2729;50.056;8.678;2023-04-01T05:53:20;98531.88;;;12.52;100.00
5413;BME280;2729;50.056;8.678;2023-04-01T05:55:46;98538.41;;;12.45;100.00
5413;BME280;2729;50.056;8.678;2023-04-01T05:58:13;98538.88;;;12.52;100.00
5413;BME280;2729;50.056;8.678;2023-04-01T06:00:43;98525.22;;;12.33;100.00
5413;BME280;2729;50.056;8.678;2023-04-01T06:03:09;98539.25;;;12.60;100.00
5413;BME280;2729;50.056;8.678;2023-04-01T06:05:40;98532.13;;;12.34;100.00
5413;BME280;2729;50.056;8.678;2023-04-01T06:08:15;98524.84;;;12.24;100.00
5413;BME280;2729;50.056;8.678;2023-04-01T06:18:59;98533.25;;;12.72;100.00
5413;BME280;2729;50.056;8.678;2023-04-01T06:22:08;98535.75;;;12.17;100.00
5413;BME280;2729;50.056;8.678;2023-04-01T06:24:50;98533.06;;;12.18;100.00
5413;BME280;2729;50.056;8.678;2023-04-01T06:27:29;98534.09;;;12.73;100.00
5413;BME280;2729;50.056;8.678;2023-04-01T06:33:30;98534.28;;;12.55;100.00
5413;BME280;2729;50.056;8.678;2023-04-01T06:36:13;98531.03;;;12.38;100.00
5413;BME280;2729;50.056;8.678;2023-04-01T06:41:27;98530.94;;;12.39;100.00
5413;BME280;2729;50.056;8.678;2023-04-01T06:44:16;98534.56;;;12.65;100.00
5413;BME280;2729;50.056;8.678;2023-04-01T06:47:25;98534.00;;;12.60;100.00
5413;BME280;2729;50.056;8.678;2023-04-01T06:50:26;98535.13;;;12.84;100.00
5413;BME280;2729;50.056;8.678;2023-04-01T06:53:32;98531.69;;;12.55;100.00
5413;BME280;2729;50.056;8.678;2023-04-01T06:56:37;98531.19;;;12.35;100.00
5413;BME280;2729;50.056;8.678;2023-04-01T06:59:25;98529.03;;;12.98;100.00
5413;BME280;2729;50.056;8.678;2023-04-01T07:01:54;98537.28;;;12.78;100.00
5413;BME280;2729;50.056;8.678;2023-04-01T07:04:32;98537.47;;;12.46;100.00
5413;BME280;2729;50.056;8.678;2023-04-01T07:07:05;98535.78;;;12.60;100.00
5413;BME280;2729;50.056;8.678;2023-04-01T07:09:49;98538.22;;;12.77;100.00
5413;BME280;2729;50.056;8.678;2023-04-01T07:12:46;98534.75;;;12.76;100.00
5413;BME280;2729;50.056;8.678;2023-04-01T07:15:39;98534.00;;;12.60;100.00
5413;BME280;2729;50.056;8.678;2023-04-01T07:18:18;98539.34;;;12.44;100.00
5413;BME280;2729;50.056;8.678;2023-04-01T07:20:48;98546.22;;;12.17;100.00
5413;BME280;2729;50.056;8.678;2023-04-01T07:23:24;98538.03;;;12.37;100.00
5413;BME280;2729;50.056;8.678;2023-04-01T07:26:20;98542.78;;;12.59;100.00
5413;BME280;2729;50.056;8.678;2023-04-01T07:29:13;98537.28;;;12.64;100.00
5413;BME280;2729;50.056;8.678;2023-04-01T07:34:35;98543.25;;;12.66;100.00
5413;BME280;2729;50.056;8.678;2023-04-01T07:37:18;98547.47;;;12.68;100.00
5413;BME280;2729;50.056;8.678;2023-04-01T07:40:08;98545.50;;;12.86;100.00
5413;BME280;2729;50.056;8.678;2023-04-01T07:45:37;98556.06;;;12.99;100.00
5413;BME280;2729;50.056;8.678;2023-04-01T07:48:23;98552.03;;;12.93;100.00
5413;BME280;2729;50.056;8.678;2023-04-01T07:51:00;98554.66;;;12.50;100.00
5413;BME280;2729;50.056;8.678;2023-04-01T07:53:36;98561.47;;;12.39;100.00
5413;BME280;2729;50.056;8.678;2023-04-01T07:59:11;98562.59;;;12.49;100.00
5413;BME280;2729;50.056;8.678;2023-04-01T08:05:07;98565.88;;;13.24;100.00
5413;BME280;2729;50.056;8.678;2023-04-01T08:07:56;98562.13;;;13.28;100.00
5413;BME280;2729;50.056;8.678;2023-04-01T08:10:51;98576.72;;;12.75;100.00
5413;BME280;2729;50.056;8.678;2023-04-01T08:14:04;98568.03;;;13.58;100.00
5413;BME280;2729;50.056;8.678;2023-04-01T08:17:05;98574.19;;;13.16;100.00
5413;BME280;2729;50.056;8.678;2023-04-01T08:22:45;98582.06;;;13.02;100.00
5413;BME280;2729;50.056;8.678;2023-04-01T08:25:30;98580.09;;;12.91;100.00
5413;BME280;2729;50.056;8.678;2023-04-01T08:28:22;98581.03;;;12.76;100.00
5413;BME280;2729;50.056;8.678;2023-04-01T08:30:58;98581.31;;;12.85;100.00
5413;BME280;2729;50.056;8.678;2023-04-01T08:33:28;98584.88;;;12.70;100.00
5413;BME280;2729;50.056;8.678;2023-04-01T08:36:08;98589.56;;;13.08;100.00
5413;BME280;2729;50.056;8.678;2023-04-01T08:38:44;98577.50;;;13.05;100.00
5413;BME280;2729;50.056;8.678;2023-04-01T08:47:52;98589.47;;;13.09;100.00
5413;BME280;2729;50.056;8.678;2023-04-01T08:50:30;98589.66;;;13.21;100.00
5413;BME280;2729;50.056;8.678;2023-04-01T08:59:16;98596.75;;;13.04;100.00
5413;BME280;2729;50.056;8.678;2023-04-01T09:02:05;98597.88;;;12.72;100.00
5413;BME280;2729;50.056;8.678;2023-04-01T09:05:35;98602.56;;;13.09;100.00
5413;BME280;2729;50.056;8.678;2023-04-01T09:10:46;98599.47;;;13.31;100.00
5413;BME280;2729;50.056;8.678;2023-04-01T09:14:17;98600.75;;;13.38;100.00
5413;BME280;2729;50.056;8.678;2023-04-01T09:25:48;98606.66;;;12.85;100.00
5413;BME280;2729;50.056;8.678;2023-04-01T09:28:19;98617.50;;;12.93;100.00
5413;BME280;2729;50.056;8.678;2023-04-01T09:34:38;98619.97;;;13.25;100.00
5413;BME280;2729;50.056;8.678;2023-04-01T09:37:26;98615.38;;;13.28;100.00
5413;BME280;2729;50.056;8.678;2023-04-01T09:40:25;98616.69;;;13.35;100.00
5413;BME280;2729;50.056;8.678;2023-04-01T09:43:21;98612.38;;;13.34;100.00
5413;BME280;2729;50.056;8.678;2023-04-01T10:00:50;98627.53;;;13.70;100.00
5413;BME280;2729;50.056;8.678;2023-04-01T10:06:47;98628.44;;;14.23;100.00
5413;BME280;2729;50.056;8.678;2023-04-01T10:12:28;98638.00;;;13.84;100.00
5413;BME280;2729;50.056;8.678;2023-04-01T10:21:28;98640.56;;;13.99;100.00
5413;BME280;2729;50.056;8.678;2023-04-01T10:29:39;98641.28;;;14.28;100.00
5413;BME280;2729;50.056;8.678;2023-04-01T10:40:37;98631.06;;;14.23;100.00
5413;BME280;2729;50.056;8.678;2023-04-01T10:47:17;98634.00;;;14.19;100.00
5413;BME280;2729;50.056;8.678;2023-04-01T10:53:22;98634.47;;;13.98;100.00
5413;BME280;2729;50.056;8.678;2023-04-01T10:56:33;98638.91;;;14.10;100.00
5413;BME280;2729;50.056;8.678;2023-04-01T10:59:35;98633.09;;;14.32;100.00
5413;BME280;2729;50.056;8.678;2023-04-01T11:06:26;98645.59;;;14.02;100.00
5413;BME280;2729;50.056;8.678;2023-04-01T11:20:59;98647.34;;;14.68;100.00
5413;BME280;2729;50.056;8.678;2023-04-01T11:23:59;98641.25;;;14.67;100.00
5413;BME280;2729;50.056;8.678;2023-04-01T11:26:37;98643.91;;;14.40;100.00
5413;BME280;2729;50.056;8.678;2023-04-01T11:29:39;98645.47;;;14.70;100.00
5413;BME280;2729;50.056;8.678;2023-04-01T11:32:42;98642.63;;;14.60;100.00
5413;BME280;2729;50.056;8.678;2023-04-01T11:41:43;98641.97;;;14.57;100.00
5413;BME280;2729;50.056;8.678;2023-04-01T11:48:08;98647.31;;;14.42;100.00
5413;BME280;2729;50.056;8.678;2023-04-01T11:53:42;98655.09;;;14.57;100.00
5413;BME280;2729;50.056;8.678;2023-04-01T11:59:04;98649.53;;;15.25;100.00
5413;BME280;2729;50.056;8.678;2023-04-01T12:04:36;98650.28;;;14.76;100.00
5413;BME280;2729;50.056;8.678;2023-04-01T12:10:15;98653.66;;;15.03;100.00
5413;BME280;2729;50.056;8.678;2023-04-01T12:13:32;98651.97;;;15.15;100.00
5413;BME280;2729;50.056;8.678;2023-04-01T12:18:58;98657.13;;;14.91;100.00
5413;BME280;2729;50.056;8.678;2023-04-01T12:21:34;98660.28;;;15.09;100.00
5413;BME280;2729;50.056;8.678;2023-04-01T12:24:35;98657.44;;;14.87;100.00
5413;BME280;2729;50.056;8.678;2023-04-01T12:30:26;98676.97;;;15.21;100.00
5413;BME280;2729;50.056;8.678;2023-04-01T12:33:33;98676.22;;;15.31;100.00
5413;BME280;2729;50.056;8.678;2023-04-01T12:41:30;98689.91;;;14.86;100.00
5413;BME280;2729;50.056;8.678;2023-04-01T12:47:17;98692.50;;;14.60;100.00
5413;BME280;2729;50.056;8.678;2023-04-01T12:50:13;98702.22;;;14.19;100.00
5413;BME280;2729;50.056;8.678;2023-04-01T12:53:31;98688.94;;;14.74;100.00
5413;BME280;2729;50.056;8.678;2023-04-01T12:55:41;98701.84;;;14.52;100.00
5413;BME280;2729;50.056;8.678;2023-04-01T12:59:08;98702.06;;;14.34;100.00
5413;BME280;2729;50.056;8.678;2023-04-01T13:01:23;98702.44;;;14.15;100.00
5413;BME280;2729;50.056;8.678;2023-04-01T13:07:10;98701.81;;;14.25;100.00
5413;BME280;2729;50.056;8.678;2023-04-01T13:09:45;98706.78;;;14.56;100.00
5413;BME280;2729;50.056;8.678;2023-04-01T13:18:06;98714.13;;;14.51;100.00
5413;BME280;2729;50.056;8.678;2023-04-01T13:20:54;98721.31;;;14.87;100.00
5413;BME280;2729;50.056;8.678;2023-04-01T13:23:34;98712.25;;;14.66;100.00
5413;BME280;2729;50.056;8.678;2023-04-01T13:26:18;98717.97;;;15.10;100.00
5413;BME280;2729;50.056;8.678;2023-04-01T13:29:00;98716.97;;;14.61;100.00
5413;BME280;2729;50.056;8.678;2023-04-01T13:31:55;98726.84;;;14.57;100.00
5413;BME280;2729;50.056;8.678;2023-04-01T13:34:34;98726.00;;;14.57;100.00
5413;BME280;2729;50.056;8.678;2023-04-01T13:37:23;98721.38;;;14.33;100.00
5413;BME280;2729;50.056;8.678;2023-04-01T13:40:05;98728.50;;;14.45;100.00
5413;BME280;2729;50.056;8.678;2023-04-01T13:42:45;98729.50;;;14.83;100.00
5413;BME280;2729;50.056;8.678;2023-04-01T13:45:20;98726.38;;;14.90;100.00
5413;BME280;2729;50.056;8.678;2023-04-01T13:51:05;98729.41;;;14.84;100.00
5413;BME280;2729;50.056;8.678;2023-04-01T13:53:47;98729.13;;;15.01;100.00
5413;BME280;2729;50.056;8.678;2023-04-01T13:56:40;98736.00;;;14.64;100.00
5413;BME280;2729;50.056;8.678;2023-04-01T14:07:47;98748.09;;;13.99;100.00
5413;BME280;2729;50.056;8.678;2023-04-01T14:10:19;98746.19;;;14.15;100.00
5413;BME280;2729;50.056;8.678;2023-04-01T14:13:02;98750.31;;;14.19;100.00
5413;BME280;2729;50.056;8.678;2023-04-01T14:15:41;98746.53;;;14.23;100.00
5413;BME280;2729;50.056;8.678;2023-04-01T14:18:32;98750.72;;;13.99;100.00
5413;BME280;2729;50.056;8.678;2023-04-01T14:21:26;98754.78;;;13.90;100.00
5413;BME280;2729;50.056;8.678;2023-04-01T14:24:07;98767.38;;;14.12;100.00
5413;BME280;2729;50.056;8.678;2023-04-01T14:29:48;98745.94;;;14.05;100.00
5413;BME280;2729;50.056;8.678;2023-04-01T14:40:42;98758.63;;;13.70;100.00
5413;BME280;2729;50.056;8.678;2023-04-01T14:43:28;98758.34;;;13.89;100.00
5413;BME280;2729;50.056;8.678;2023-04-01T14:46:13;98761.47;;;13.53;100.00
5413;BME280;2729;50.056;8.678;2023-04-01T14:59:26;98768.09;;;13.87;100.00
5413;BME280;2729;50.056;8.678;2023-04-01T15:01:59;98777.41;;;14.05;100.00
5413;BME280;2729;50.056;8.678;2023-04-01T15:04:32;98772.34;;;14.16;100.00
5413;BME280;2729;50.056;8.678;2023-04-01T15:07:12;98776.72;;;13.75;100.00
5413;BME280;2729;50.056;8.678;2023-04-01T15:12:38;98774.72;;;13.93;100.00
5413;BME280;2729;50.056;8.678;2023-04-01T15:15:21;98778.41;;;14.17;100.00
5413;BME280;2729;50.056;8.678;2023-04-01T15:18:12;98779.78;;;13.96;100.00
5413;BME280;2729;50.056;8.678;2023-04-01T15:20:47;98774.66;;;13.80;100.00
5413;BME280;2729;50.056;8.678;2023-04-01T15:26:19;98790.66;;;13.90;100.00
5413;BME280;2729;50.056;8.678;2023-04-01T15:28:57;98790.06;;;13.99;100.00
5413;BME280;2729;50.056;8.678;2023-04-01T15:31:46;98788.91;;;14.17;100.00
5413;BME280;2729;50.056;8.678;2023-04-01T15:34:25;98796.94;;;14.28;100.00
5413;BME280;2729;50.056;8.678;2023-04-01T15:37:02;98799.50;;;14.15;100.00
5413;BME280;2729;50.056;8.678;2023-04-01T15:39:51;98804.06;;;14.26;100.00
5413;BME280;2729;50.056;8.678;2023-04-01T15:42:33;98802.28;;;14.27;100.00
5413;BME280;2729;50.056;8.678;2023-04-01T15:45:13;98810.09;;;14.14;100.00
5413;BME280;2729;50.056;8.678;2023-04-01T15:47:45;98816.25;;;14.27;100.00
5413;BME280;2729;50.056;8.678;2023-04-01T15:50:35;98815.19;;;13.74;100.00
5413;BME280;2729;50.056;8.678;2023-04-01T15:53:11;98821.34;;;14.16;100.00
5413;BME280;2729;50.056;8.678;2023-04-01T15:55:51;98814.25;;;13.90;100.00
5413;BME280;2729;50.056;8.678;2023-04-01T16:01:34;98819.94;;;14.10;100.00
5413;BME280;2729;50.056;8.678;2023-04-01T16:04:24;98816.50;;;13.96;100.00
5413;BME280;2729;50.056;8.678;2023-04-01T16:12:50;98834.34;;;14.32;100.00
5413;BME280;2729;50.056;8.678;2023-04-01T16:15:35;98835.50;;;14.13;100.00
5413;BME280;2729;50.056;8.678;2023-04-01T16:18:18;98835.56;;;14.26;100.00
5413;BME280;2729;50.056;8.678;2023-04-01T16:21:05;98834.44;;;14.44;100.00
5413;BME280;2729;50.056;8.678;2023-04-01T16:23:40;98841.84;;;14.24;100.00
5413;BME280;2729;50.056;8.678;2023-04-01T16:26:29;98846.56;;;14.19;100.00
5413;BME280;2729;50.056;8.678;2023-04-01T16:34:44;98851.63;;;13.79;100.00
5413;BME280;2729;50.056;8.678;2023-04-01T16:37:21;98856.50;;;13.99;100.00
5413;BME280;2729;50.056;8.678;2023-04-01T16:42:53;98861.38;;;13.77;100.00
5413;BME280;2729;50.056;8.678;2023-04-01T16:45:32;98871.25;;;13.43;100.00
5413;BME280;2729;50.056;8.678;2023-04-01T16:48:15;98875.50;;;13.74;100.00
5413;BME280;2729;50.056;8.678;2023-04-01T16:50:52;98878.06;;;13.90;100.00
5413;BME280;2729;50.056;8.678;2023-04-01T16:53:41;98874.75;;;13.58;100.00
5413;BME280;2729;50.056;8.678;2023-04-01T16:56:19;98884.69;;;13.23;100.00
5413;BME280;2729;50.056;8.678;2023-04-01T16:59:02;98889.88;;;13.39;100.00
5413;BME280;2729;50.056;8.678;2023-04-01T17:01:44;98886.94;;;13.29;100.00
5413;BME280;2729;50.056;8.678;2023-04-01T17:04:21;98896.66;;;13.57;100.00
5413;BME280;2729;50.056;8.678;2023-04-01T17:09:46;98904.53;;;13.71;100.00
5413;BME280;2729;50.056;8.678;2023-04-01T17:12:27;98906.94;;;13.46;100.00
5413;BME280;2729;50.056;8.678;2023-04-01T17:15:32;98907.00;;;13.44;100.00
5413;BME280;2729;50.056;8.678;2023-04-01T17:20:46;98916.56;;;13.45;100.00
5413;BME280;2729;50.056;8.678;2023-04-01T17:26:04;98922.25;;;13.38;100.00
5413;BME280;2729;50.056;8.678;2023-04-01T17:28:40;98922.53;;;13.33;100.00
5413;BME280;2729;50.056;8.678;2023-04-01T17:31:26;98924.69;;;13.41;100.00
5413;BME280;2729;50.056;8.678;2023-04-01T17:40:15;98937.75;;;13.27;100.00
5413;BME280;2729;50.056;8.678;2023-04-01T17:45:34;98948.41;;;13.08;100.00
5413;BME280;2729;50.056;8.678;2023-04-01T17:48:18;98943.06;;;13.09;100.00
5413;BME280;2729;50.056;8.678;2023-04-01T17:50:53;98955.34;;;13.09;100.00
5413;BME280;2729;50.056;8.678;2023-04-01T18:01:53;98981.00;;;12.86;100.00
5413;BME280;2729;50.056;8.678;2023-04-01T18:10:25;98997.88;;;12.81;100.00
5413;BME280;2729;50.056;8.678;2023-04-01T18:13:18;98997.44;;;12.57;100.00
5413;BME280;2729;50.056;8.678;2023-04-01T18:19:20;99013.34;;;12.70;100.00
5413;BME280;2729;50.056;8.678;2023-04-01T18:21:53;99015.63;;;12.92;100.00
5413;BME280;2729;50.056;8.678;2023-04-01T18:24:27;99014.41;;;12.66;100.00
5413;BME280;2729;50.056;8.678;2023-04-01T18:27:03;99020.94;;;12.90;100.00
5413;BME280;2729;50.056;8.678;2023-04-01T18:29:49;99033.41;;;13.02;100.00
5413;BME280;2729;50.056;8.678;2023-04-01T18:35:02;99041.81;;;12.92;100.00
5413;BME280;2729;50.056;8.678;2023-04-01T18:37:53;99041.88;;;12.74;100.00
5413;BME280;2729;50.056;8.678;2023-04-01T18:40:26;99049.00;;;12.88;100.00